Terminal Aerodrome Forecast
Issued by NWS Memphis, TN

Home | Current Version | Previous Version | Text Only | Print | Product List | Glossary On
Versions: 1 2 3 4 5 6 7 8 9 10 11 12 13
000
FTUS44 KMEG 281131
TAFJBR
TAF
KJBR 281131Z 2812/2912 26010KT P6SM FEW250
     FM281700 27011G17KT P6SM FEW060
     FM282000 34011G18KT P6SM SCT070
     FM290000 35005KT P6SM SKC=

USA.gov is the U.S. government's official web portal to all federal, state and local government web resources and services.